Lilienfeld, Austria
Current Conditions -  °F | °C
As of 10:50 PM on Friday 21 Nov 2014 (Local Time) from LOXT Reporting Station
Broken Clouds Broken Clouds  
Wind Chill: 38°   Ceiling: 2300
Heat Index: 41°   Visibility: 13mi
Dew Point: 36°   Wind: 5mph
Humidity: 81%   Direction: 70°ENE
Pressure: 30.27"   Gusts: NA
Location:  48.01°N, 15.6°E
Report Text: LOXT 212050Z 07004KT 20KM BKN023SC 05/02 Q1025 RMK BKN
Loading
Personal Weather Stations






























Interactive Weather Map New forecast layout! Learn more

10-Day Weather Forecast

Advertisements
Track Severe Weather on mobile